Data for 09/22/2007

Time Sea-Level Adjusted Pressure Absolute Pressure Temperature Relative Humidity Dew Point   
(mb) (inHg) (mb) (inHg) (C) (F) (%) (C) (F)
00:05 1014 29.94 843 24.89 12.4 54.3 36 -2.4 27.7
00:10 1014 29.94 843 24.89 12.5 54.5 37 -1.9 28.6
00:15 1014 29.94 843 24.89 12.4 54.2 37 -1.9 28.6
00:20 1014 29.94 843 24.89 12.8 55.1 31 -3.8 25.1
00:25 1014 29.94 843 24.89 13.8 56.9 32 -2.5 27.4
00:30 1014 29.94 843 24.89 13.7 56.6 33 -2.1 28.3
00:35 1014 29.94 843 24.89 13.2 55.7 35 -2 28.4
00:40 1014 29.94 843 24.89 12.8 55 37 -1.6 29.1
00:45 1014 29.94 843 24.89 12.7 54.9 34 -2.7 27.1
00:50 1014 29.94 843 24.89 12.6 54.7 38 -1.3 29.7
00:55 1014 29.94 843 24.89 12.3 54.1 36 -2.4 27.6
01:00 1014 29.94 843 24.89 12.6 54.6 39 -1.1 30.1
01:05 1013 29.91 843 24.89 12.3 54.1 36 -2.2 28.1
01:10 1013 29.91 843 24.89 12.3 54.2 37 -1.9 28.6
01:15 1013 29.91 843 24.89 12.4 54.4 41 -0.3 31.5
01:20 1013 29.91 843 24.89 11.7 53 38 -2 28.5
01:25 1013 29.91 843 24.89 11.9 53.3 39 -1.6 29.1
01:30 1013 29.91 842 24.86 11.7 53.1 39 -1.6 29.2
01:35 1013 29.91 842 24.86 12.1 53.7 39 -1.5 29.4
01:40 1013 29.91 842 24.86 12.1 53.8 40 -1.2 29.9
01:45 1013 29.91 842 24.86 11.6 52.9 43 -0.5 31.1
01:50 1013 29.91 842 24.86 11.3 52.3 42 -1.2 29.9
01:55 1013 29.91 842 24.86 11.7 53 39 -1.9 28.6
02:00 1013 29.91 842 24.86 12.2 54 42 -0.3 31.4
02:05 1013 29.91 842 24.86 11.9 53.3 35 -3.1 26.4
02:10 1013 29.91 842 24.86 13.3 56 39 -0.2 31.6
02:15 1013 29.91 842 24.86 12.2 54 38 -1.7 28.9
02:20 1013 29.91 842 24.86 12.4 54.3 39 -1 30.1
02:25 1013 29.91 842 24.86 12.1 53.8 40 -0.8 30.5
02:30 1013 29.91 842 24.86 11.9 53.5 39 -1.5 29.3
02:35 1013 29.91 842 24.86 12.3 54.1 37 -1.9 28.6
02:40 1013 29.91 842 24.86 12.6 54.7 38 -1.2 29.8
02:45 1013 29.91 842 24.86 12.5 54.4 37 -1.9 28.6
02:50 1013 29.91 842 24.86 12.5 54.4 38 -1.6 29.2
02:55 1013 29.91 842 24.86 12.5 54.4 38 -1.3 29.6
03:00 1013 29.91 842 24.86 12.3 54.2 38 -1.5 29.4
03:05 1013 29.91 842 24.86 12.6 54.8 37 -1.6 29
03:10 1013 29.91 842 24.86 12.4 54.4 38 -1.5 29.3
03:15 1012 29.88 842 24.86 12.3 54.2 39 -1.1 29.9
03:20 1012 29.88 842 24.86 12 53.6 40 -1 30.2
03:25 1012 29.88 842 24.86 11.8 53.2 42 -0.5 31.1
03:30 1012 29.88 842 24.86 11.4 52.5 43 -0.7 30.8
03:35 1012 29.88 841 24.83 11.3 52.3 44 -0.5 31.2
03:40 1012 29.88 841 24.83 11.4 52.5 42 -1 30.2
03:45 1012 29.88 841 24.83 11.7 53.1 42 -0.7 30.8
03:50 1012 29.88 841 24.83 11.9 53.3 42 -0.7 30.8
03:55 1012 29.88 841 24.83 12 53.7 39 -1.3 29.6
04:00 1012 29.88 841 24.83 12.5 54.4 39 -1 30.1
04:05 1012 29.88 841 24.83 12.4 54.3 39 -1 30.3
04:10 1012 29.88 841 24.83 12.3 54.2 39 -1.1 30.1
04:15 1012 29.88 841 24.83 12.6 54.6 39 -0.9 30.4
04:20 1012 29.88 841 24.83 12.5 54.5 40 -0.7 30.8
04:25 1012 29.88 841 24.83 12.7 54.9 38 -1.2 29.9
04:30 1012 29.88 841 24.83 13 55.3 39 -0.7 30.8
04:35 1012 29.88 841 24.83 12.7 54.9 39 -0.7 30.8
04:40 1012 29.88 841 24.83 12.6 54.6 39 -1.1 30
04:45 1012 29.88 841 24.83 13 55.5 36 -1.5 29.3
04:50 1012 29.88 841 24.83 13.6 56.4 38 -0.2 31.6
04:55 1012 29.88 841 24.83 13.5 56.2 39 -0.2 31.6
05:00 1012 29.88 841 24.83 13.5 56.2 40 0.2 32.4
05:05 1012 29.88 841 24.83 13.6 56.5 42 0.9 33.7
05:10 1012 29.88 841 24.83 13.5 56.3 45 1.8 35.3
05:15 1012 29.88 841 24.83 13.3 55.9 44 1.3 34.3
05:20 1012 29.88 841 24.83 13.3 56 46 2 35.6
05:25 1012 29.88 841 24.83 13.3 56 46 2 35.7
05:30 1012 29.88 841 24.83 13 55.3 49 2.5 36.5
05:35 1012 29.88 841 24.83 12.4 54.4 50 2.5 36.5
05:40 1012 29.88 841 24.83 12.1 53.8 52 2.6 36.6
05:45 1012 29.88 841 24.83 11.9 53.5 51 2.2 36
05:50 1012 29.88 841 24.83 12.3 54.1 49 1.8 35.3
05:55 1012 29.88 841 24.83 12.6 54.7 46 1.4 34.5
06:00 1012 29.88 841 24.83 13.1 55.6 43 0.8 33.5
06:05 1012 29.88 841 24.83 13.6 56.5 40 0.2 32.3
06:10 1012 29.88 841 24.83 14.4 57.9 39 0.6 33
06:15 1012 29.88 841 24.83 14.7 58.4 38 0.8 33.4
06:20 1012 29.88 841 24.83 14.5 58 40 1 33.9
06:25 1012 29.88 841 24.83 14.2 57.6 39 0.7 33.3
06:30 1012 29.88 841 24.83 14.3 57.8 40 0.8 33.5
06:35 1012 29.88 841 24.83 14.1 57.4 37 -0.4 31.3
06:40 1012 29.88 841 24.83 14.3 57.7 41 1.5 34.6
06:45 1012 29.88 841 24.83 14 57.2 38 -0.2 31.7
06:50 1012 29.88 841 24.83 14.4 57.9 39 0.5 33
06:55 1012 29.88 841 24.83 14.1 57.3 39 0.4 32.8
07:00 1012 29.88 841 24.83 13.8 56.9 41 0.7 33.3
07:05 1012 29.88 841 24.83 13.5 56.2 41 0.6 33.2
07:10 1012 29.88 841 24.83 13.3 55.9 40 -0.1 31.8
07:15 1012 29.88 841 24.83 13.6 56.5 41 0.5 33
07:20 1012 29.88 841 24.83 13.4 56.1 43 1.3 34.3
07:25 1012 29.88 841 24.83 12.9 55.1 44 0.9 33.5
07:30 1012 29.88 841 24.83 12.8 55.1 43 0.5 32.9
07:35 1012 29.88 841 24.83 13 55.3 46 1.7 35
07:40 1012 29.88 841 24.83 12.6 54.6 47 1.5 34.7
07:45 1012 29.88 841 24.83 12.8 55.1 44 0.8 33.4
07:50 1012 29.88 841 24.83 13.3 55.9 45 1.8 35.2
07:55 1012 29.88 841 24.83 13 55.3 49 2.5 36.5
08:00 1012 29.88 841 24.83 12.2 54 52 2.7 36.8
08:05 1012 29.88 841 24.83 12 53.7 51 2.2 35.9
08:10 1012 29.88 841 24.83 12.3 54.1 51 2.4 36.3
08:15 1012 29.88 841 24.83 12.4 54.4 48 1.8 35.3
08:20 1012 29.88 841 24.83 12.3 54.1 49 1.9 35.4
08:25 1012 29.88 841 24.83 12.5 54.5 46 1.1 34
08:30 1012 29.88 841 24.83 12.8 55 46 1.5 34.8
08:35 1012 29.88 841 24.83 12.9 55.2 45 1.4 34.5
08:40 1012 29.88 841 24.83 13.2 55.7 45 1.7 35
08:45 1012 29.88 841 24.83 13.4 56.1 44 1.5 34.7
08:50 1012 29.88 841 24.83 13.7 56.6 48 2.9 37.2
08:55 1012 29.88 841 24.83 13.6 56.5 48 2.9 37.2
09:00 1012 29.88 841 24.83 13.5 56.3 51 3.7 38.7
09:05 1012 29.88 841 24.83 13.5 56.3 51 3.5 38.4
09:10 1012 29.88 841 24.83 13.7 56.6 52 4.2 39.5
09:15 1012 29.88 841 24.83 14 57.1 50 3.7 38.6
09:20 1012 29.88 841 24.83 14.4 57.9 51 4.5 40.1
09:25 1012 29.88 841 24.83 14.6 58.3 49 4.1 39.4
09:30 1012 29.88 841 24.83 15.1 59.1 45 3.3 38
09:35 1012 29.88 841 24.83 15.5 60 48 4.7 40.4
09:40 1012 29.88 841 24.83 16 60.8 49 5.3 41.6
09:45 1012 29.88 841 24.83 16.4 61.6 47 5.2 41.3
09:50 1012 29.88 841 24.83 16.5 61.6 46 5 41
09:55 1012 29.88 841 24.83 16.8 62.2 49 6 42.9
10:00 1012 29.88 841 24.83 17 62.6 48 5.9 42.7
10:05 1012 29.88 841 24.83 17.1 62.8 46 5.5 41.8
10:10 1012 29.88 841 24.83 17.1 62.8 46 5.6 42.1
10:15 1012 29.88 841 24.83 17.3 63.1 43 4.8 40.6
10:20 1012 29.88 841 24.83 17.1 62.8 47 5.9 42.6
10:25 1012 29.88 841 24.83 17 62.6 44 4.9 40.9
10:30 1012 29.88 841 24.83 17.1 62.7 48 6.1 43
10:35 1012 29.88 841 24.83 16.9 62.4 49 6.1 43.1
10:40 1012 29.88 841 24.83 17 62.6 44 4.8 40.6
10:45 1012 29.88 841 24.83 17 62.6 47 5.7 42.3
10:50 1012 29.88 841 24.83 16.9 62.4 43 4.2 39.6
10:55 1012 29.88 841 24.83 17 62.5 42 4 39.3
11:00 1012 29.88 841 24.83 17.2 63 44 4.9 40.7
11:05 1012 29.88 841 24.83 17.3 63.2 40 3.7 38.7
11:10 1012 29.88 841 24.83 17.7 63.9 40 4.2 39.5
11:15 1012 29.88 841 24.83 18 64.4 42 5.1 41.2
11:20 1012 29.88 842 24.86 17.7 63.9 45 5.9 42.6
11:25 1012 29.88 842 24.86 17.4 63.2 46 5.6 42.2
11:30 1012 29.88 842 24.86 17.1 62.8 48 6.2 43.1
11:35 1013 29.91 842 24.86 16.7 62.1 44 4.5 40.2
11:40 1012 29.88 842 24.86 16.5 61.8 45 4.6 40.2
11:45 1013 29.91 842 24.86 16.3 61.3 47 5 41.1
11:50 1013 29.91 842 24.86 16.1 61 44 4 39.1
11:55 1013 29.91 842 24.86 16.4 61.6 43 3.8 38.8
12:00 1013 29.91 842 24.86 16.6 61.8 43 4 39.2
12:05 1013 29.91 842 24.86 16.7 62 44 4.3 39.8
12:10 1013 29.91 842 24.86 16.8 62.2 41 3.7 38.6
12:15 1013 29.91 842 24.86 17 62.6 40 3.6 38.4
12:20 1013 29.91 842 24.86 17 62.7 43 4.5 40.1
12:25 1013 29.91 842 24.86 16.9 62.3 44 4.7 40.5
12:30 1013 29.91 842 24.86 16.7 62.1 44 4.5 40.1
12:35 1013 29.91 842 24.86 16.7 62.1 44 4.5 40.1
12:40 1013 29.91 842 24.86 16.8 62.2 45 4.8 40.7
12:45 1013 29.91 842 24.86 16.9 62.4 45 5 41
12:50 1013 29.91 842 24.86 17 62.7 44 4.7 40.5
12:55 1013 29.91 842 24.86 17.3 63.1 43 4.8 40.7
13:00 1013 29.91 842 24.86 17.4 63.4 43 4.7 40.5
13:05 1013 29.91 842 24.86 17.6 63.7 43 4.9 40.9
13:10 1013 29.91 842 24.86 18 64.3 43 5.2 41.3
13:15 1013 29.91 842 24.86 18.2 64.7 42 5.3 41.5
13:20 1013 29.91 842 24.86 18.8 65.8 40 5 41.1
13:25 1013 29.91 842 24.86 19.5 67.2 39 5.3 41.5
13:30 1013 29.91 842 24.86 19.9 67.8 37 4.9 40.9
13:35 1013 29.91 842 24.86 19.8 67.6 39 5.4 41.8
13:40 1013 29.91 842 24.86 19.7 67.5 38 5.1 41.2
13:45 1013 29.91 842 24.86 19.6 67.3 40 5.7 42.2
13:50 1013 29.91 842 24.86 18.7 65.6 43 5.8 42.5
13:55 1013 29.91 842 24.86 17.9 64.3 44 5.6 42.1
14:00 1013 29.91 842 24.86 17.9 64.2 44 5.7 42.3
14:05 1013 29.91 842 24.86 18 64.4 45 6 42.7
14:10 1012 29.88 842 24.86 17.9 64.2 46 6.3 43.3
14:15 1012 29.88 842 24.86 17.8 64.1 46 6 42.8
14:20 1012 29.88 842 24.86 17.9 64.1 45 6 42.8
14:25 1012 29.88 841 24.83 18 64.3 45 5.9 42.6
14:30 1012 29.88 841 24.83 17.9 64.2 46 6.1 43
14:35 1012 29.88 842 24.86 17.9 64.2 44 5.7 42.3
14:40 1012 29.88 842 24.86 17.9 64.1 45 5.9 42.7
14:45 1012 29.88 842 24.86 18.1 64.6 46 6.3 43.4
14:50 1012 29.88 841 24.83 18.4 65.2 50 7.8 46.1
14:55 1012 29.88 842 24.86 18.6 65.4 45 6.5 43.6
15:00 1012 29.88 841 24.83 18.1 64.6 45 6.1 43
15:05 1012 29.88 841 24.83 17.7 63.8 47 6.2 43.2
15:10 1012 29.88 841 24.83 17.4 63.4 48 6.4 43.5
15:15 1012 29.88 841 24.83 17.2 62.9 48 6.1 43.1
15:20 1012 29.88 842 24.86 17.1 62.7 49 6.3 43.4
15:25 1013 29.91 842 24.86 16.9 62.3 48 5.9 42.5
15:30 1013 29.91 842 24.86 16.8 62.2 48 5.9 42.7
15:35 1013 29.91 842 24.86 16.7 62.1 50 6.4 43.5
15:40 1013 29.91 842 24.86 16.5 61.7 51 6.4 43.6
15:45 1013 29.91 842 24.86 16.4 61.5 50 6 42.8
15:50 1013 29.91 842 24.86 16.3 61.4 49 5.8 42.5
15:55 1013 29.91 842 24.86 16.3 61.4 50 5.9 42.7
16:00 1013 29.91 842 24.86 16.2 61.1 53 6.8 44.2
16:05 1013 29.91 842 24.86 15.9 60.7 57 7.4 45.3
16:10 1013 29.91 842 24.86 15.4 59.7 63 8.4 47.1
16:15 1013 29.91 842 24.86 14.8 58.7 65 8.4 47.2
16:20 1013 29.91 842 24.86 14.4 57.9 65 8.1 46.5
16:25 1013 29.91 842 24.86 14.2 57.5 65 7.8 46
16:30 1012 29.88 842 24.86 14.3 57.7 63 7.5 45.5
16:35 1012 29.88 842 24.86 14.5 58 62 7.3 45.2
16:40 1012 29.88 842 24.86 14.6 58.2 62 7.4 45.3
16:45 1013 29.91 842 24.86 14.5 58.1 62 7.3 45.2
16:50 1013 29.91 842 24.86 14.3 57.8 64 7.6 45.7
16:55 1013 29.91 842 24.86 14.3 57.8 63 7.5 45.6
17:00 1013 29.91 842 24.86 14.5 58 62 7.4 45.4
17:05 1013 29.91 842 24.86 14.5 58 64 7.8 46
17:10 1013 29.91 842 24.86 14.3 57.8 66 8.1 46.5
17:15 1013 29.91 842 24.86 14 57.2 71 8.8 47.9
17:20 1013 29.91 842 24.86 13.5 56.3 74 9 48.2
17:25 1013 29.91 842 24.86 12.9 55.2 77 9 48.2
17:30 1013 29.91 842 24.86 12.5 54.5 79 9.1 48.4
17:35 1013 29.91 842 24.86 12.3 54.2 81 9.2 48.6
17:40 1013 29.91 842 24.86 12.1 53.9 83 9.4 48.9
17:45 1013 29.91 842 24.86 12.1 53.8 83 9.3 48.7
17:50 1013 29.91 842 24.86 12.1 53.7 84 9.4 49
17:55 1013 29.91 842 24.86 11.9 53.4 85 9.5 49.1
18:00 1013 29.91 842 24.86 11.9 53.3 84 9.3 48.7
18:05 1013 29.91 842 24.86 11.9 53.4 84 9.2 48.6
18:10 1013 29.91 842 24.86 12 53.5 85 9.5 49
18:15 1013 29.91 842 24.86 12 53.7 82 9.1 48.4
18:20 1013 29.91 842 24.86 12.1 53.7 82 9.2 48.5
18:25 1012 29.88 842 24.86 12 53.5 84 9.3 48.8
18:30 1012 29.88 842 24.86 11.9 53.3 83 9.1 48.3
18:35 1012 29.88 841 24.83 11.9 53.4 85 9.5 49.1
18:40 1012 29.88 841 24.83 11.7 53 87 9.7 49.4
18:45 1012 29.88 841 24.83 11.4 52.6 88 9.5 49.1
18:50 1012 29.88 841 24.83 11.5 52.6 88 9.5 49.1
18:55 1012 29.88 841 24.83 11.5 52.6 88 9.6 49.2
19:00 1012 29.88 841 24.83 11.4 52.4 88 9.5 49
19:05 1012 29.88 841 24.83 11.3 52.3 89 9.5 49
19:10 1012 29.88 841 24.83 11.3 52.3 88 9.4 48.9
19:15 1012 29.88 841 24.83 11.3 52.3 88 9.3 48.7
19:20 1012 29.88 841 24.83 11.3 52.4 87 9.3 48.7
19:25 1012 29.88 841 24.83 11.3 52.4 87 9.2 48.6
19:30 1012 29.88 841 24.83 11.3 52.4 88 9.4 48.9
19:35 1012 29.88 841 24.83 11.3 52.3 89 9.5 49
19:40 1011 29.85 841 24.83 11.3 52.4 87 9.3 48.8
19:45 1012 29.88 841 24.83 11.3 52.3 89 9.5 49.1
19:50 1012 29.88 841 24.83 11.2 52.2 89 9.5 49
19:55 1012 29.88 841 24.83 11.2 52.2 89 9.6 49.2
20:00 1011 29.85 841 24.83 11.2 52.2 90 9.6 49.3
20:05 1011 29.85 841 24.83 11.2 52.2 89 9.5 49.1
20:10 1011 29.85 840 24.81 11.3 52.3 87 9.1 48.4
20:15 1011 29.85 840 24.81 11.3 52.3 87 9.2 48.5
20:20 1011 29.85 840 24.81 11.3 52.3 88 9.4 48.9
20:25 1011 29.85 840 24.81 11.1 52 89 9.3 48.8
20:30 1011 29.85 840 24.81 11.2 52.1 89 9.3 48.8
20:35 1011 29.85 840 24.81 11.3 52.3 86 9.1 48.3
20:40 1011 29.85 840 24.81 11.3 52.4 86 9 48.3
20:45 1011 29.85 840 24.81 11.4 52.4 85 8.9 48.1
20:50 1011 29.85 840 24.81 11.4 52.5 87 9.2 48.6
20:55 1011 29.85 840 24.81 11.5 52.7 83 8.7 47.7
21:00 1011 29.85 840 24.81 11.6 52.8 85 9.2 48.6
21:05 1011 29.85 840 24.81 11.6 52.9 85 9.2 48.5
21:10 1011 29.85 840 24.81 11.7 53 84 9 48.3
21:15 1011 29.85 840 24.81 11.7 53.1 84 9.1 48.3
21:20 1011 29.85 840 24.81 11.7 53.1 85 9.3 48.8
21:25 1011 29.85 840 24.81 11.6 52.9 86 9.3 48.8
21:30 1011 29.85 840 24.81 11.6 52.8 87 9.5 49.1
21:35 1010 29.83 840 24.81 11.3 52.3 89 9.5 49.1
21:40 1010 29.83 840 24.81 11 51.9 89 9.3 48.8
21:45 1010 29.83 840 24.81 10.9 51.6 91 9.4 49
21:50 1010 29.83 840 24.81 10.9 51.5 91 9.5 49
21:55 1010 29.83 840 24.81 10.8 51.5 92 9.5 49.1
22:00 1010 29.83 840 24.81 10.7 51.3 91 9.4 48.9
22:05 1010 29.83 839 24.78 10.7 51.2 92 9.4 49
22:10 1010 29.83 839 24.78 10.6 51.1 92 9.4 49
22:15 1010 29.83 839 24.78 10.5 51 93 9.4 48.9
22:20 1010 29.83 839 24.78 10.4 50.8 94 9.5 49
22:25 1010 29.83 839 24.78 10.3 50.6 94 9.4 49
22:30 1010 29.83 839 24.78 10.4 50.7 94 9.5 49.1
22:35 1010 29.83 839 24.78 10.3 50.6 95 9.5 49.1
22:40 1010 29.83 839 24.78 10.6 51 93 9.4 49
22:45 1010 29.83 839 24.78 10.8 51.4 92 9.5 49.1
22:50 1010 29.83 839 24.78 10.7 51.3 92 9.5 49.1
22:55 1010 29.83 839 24.78 10.8 51.4 90 9.2 48.6
23:00 1010 29.83 839 24.78 10.7 51.2 90 9.2 48.5
23:05 1010 29.83 839 24.78 10.7 51.3 90 9.2 48.5
23:10 1010 29.83 839 24.78 10.5 50.9 91 9.1 48.4
23:15 1010 29.83 839 24.78 10.3 50.6 92 9.1 48.3
23:20 1010 29.83 839 24.78 10.4 50.6 92 9.1 48.3
23:25 1009 29.8 839 24.78 10.6 51 91 9.2 48.5
23:30 1009 29.8 839 24.78 10.5 50.9 92 9.2 48.5
23:35 1009 29.8 838 24.75 10.3 50.5 93 9.2 48.5
23:40 1009 29.8 838 24.75 10.2 50.3 93 9.1 48.4
23:45 1009 29.8 838 24.75 10.1 50.1 93 8.9 48.1
23:50 1009 29.8 838 24.75 10.1 50.2 91 8.8 47.8
23:55 1009 29.8 838 24.75 10.1 50.3 92 8.9 48
24:00 1009 29.8 838 24.75 10.3 50.5 91 8.8 47.9